sensor_id;sensor_type;location;lat;lon;timestamp;pressure;altitude;pressure_sealevel;temperature
76898;BMP180;65856;52.178;21.176;2023-03-11T00:00:21;97716.40;;;7.70
76898;BMP180;65856;52.178;21.176;2023-03-11T00:02:52;97722.00;;;7.80
76898;BMP180;65856;52.178;21.176;2023-03-11T00:05:23;97719.60;;;7.80
76898;BMP180;65856;52.178;21.176;2023-03-11T00:07:52;97723.40;;;7.80
76898;BMP180;65856;52.178;21.176;2023-03-11T00:10:23;97721.80;;;7.80
76898;BMP180;65856;52.178;21.176;2023-03-11T00:12:52;97714.80;;;7.80
76898;BMP180;65856;52.178;21.176;2023-03-11T00:15:21;97714.00;;;7.80
76898;BMP180;65856;52.178;21.176;2023-03-11T00:17:49;97716.20;;;7.80
76898;BMP180;65856;52.178;21.176;2023-03-11T00:20:22;97716.80;;;7.80
76898;BMP180;65856;52.178;21.176;2023-03-11T00:22:50;97712.40;;;7.84
76898;BMP180;65856;52.178;21.176;2023-03-11T00:25:20;97710.00;;;7.80
76898;BMP180;65856;52.178;21.176;2023-03-11T00:27:50;97703.80;;;7.80
76898;BMP180;65856;52.178;21.176;2023-03-11T00:30:20;97704.60;;;7.78
76898;BMP180;65856;52.178;21.176;2023-03-11T00:32:49;97700.60;;;7.74
76898;BMP180;65856;52.178;21.176;2023-03-11T00:35:22;97702.80;;;7.76
76898;BMP180;65856;52.178;21.176;2023-03-11T00:37:55;97698.40;;;7.70
76898;BMP180;65856;52.178;21.176;2023-03-11T00:40:27;97697.80;;;7.72
76898;BMP180;65856;52.178;21.176;2023-03-11T00:42:54;97692.20;;;7.70
76898;BMP180;65856;52.178;21.176;2023-03-11T00:45:23;97690.60;;;7.70
76898;BMP180;65856;52.178;21.176;2023-03-11T00:47:51;97690.40;;;7.70
76898;BMP180;65856;52.178;21.176;2023-03-11T00:50:23;97686.20;;;7.70
76898;BMP180;65856;52.178;21.176;2023-03-11T00:52:52;97683.60;;;7.70
76898;BMP180;65856;52.178;21.176;2023-03-11T00:55:23;97678.40;;;7.70
76898;BMP180;65856;52.178;21.176;2023-03-11T00:57:53;97675.40;;;7.70
76898;BMP180;65856;52.178;21.176;2023-03-11T01:00:24;97667.00;;;7.70
76898;BMP180;65856;52.178;21.176;2023-03-11T01:02:54;97670.20;;;7.70
76898;BMP180;65856;52.178;21.176;2023-03-11T01:05:27;97665.40;;;7.70
76898;BMP180;65856;52.178;21.176;2023-03-11T01:07:55;97666.20;;;7.70
76898;BMP180;65856;52.178;21.176;2023-03-11T01:10:23;97662.80;;;7.66
76898;BMP180;65856;52.178;21.176;2023-03-11T01:12:51;97664.20;;;7.62
76898;BMP180;65856;52.178;21.176;2023-03-11T01:15:25;97658.40;;;7.60
76898;BMP180;65856;52.178;21.176;2023-03-11T01:17:53;97654.40;;;7.64
76898;BMP180;65856;52.178;21.176;2023-03-11T01:20:22;97657.40;;;7.60
76898;BMP180;65856;52.178;21.176;2023-03-11T01:22:50;97656.00;;;7.62
76898;BMP180;65856;52.178;21.176;2023-03-11T01:25:21;97654.00;;;7.64
76898;BMP180;65856;52.178;21.176;2023-03-11T01:27:49;97654.80;;;7.60
76898;BMP180;65856;52.178;21.176;2023-03-11T01:30:20;97652.80;;;7.60
76898;BMP180;65856;52.178;21.176;2023-03-11T01:32:49;97646.80;;;7.60
76898;BMP180;65856;52.178;21.176;2023-03-11T01:35:19;97644.20;;;7.60
76898;BMP180;65856;52.178;21.176;2023-03-11T01:37:47;97645.60;;;7.58
76898;BMP180;65856;52.178;21.176;2023-03-11T01:40:31;97645.80;;;7.50
76898;BMP180;65856;52.178;21.176;2023-03-11T01:43:00;97650.60;;;7.50
76898;BMP180;65856;52.178;21.176;2023-03-11T01:46:04;97646.00;;;7.50
76898;BMP180;65856;52.178;21.176;2023-03-11T01:48:33;97643.20;;;7.50
76898;BMP180;65856;52.178;21.176;2023-03-11T01:51:01;97641.20;;;7.50
76898;BMP180;65856;52.178;21.176;2023-03-11T01:53:30;97637.40;;;7.40
76898;BMP180;65856;52.178;21.176;2023-03-11T01:55:59;97633.40;;;7.40
76898;BMP180;65856;52.178;21.176;2023-03-11T01:58:34;97637.20;;;7.40
76898;BMP180;65856;52.178;21.176;2023-03-11T02:01:05;97637.40;;;7.46
76898;BMP180;65856;52.178;21.176;2023-03-11T02:03:37;97634.40;;;7.44
76898;BMP180;65856;52.178;21.176;2023-03-11T02:06:11;97637.20;;;7.40
76898;BMP180;65856;52.178;21.176;2023-03-11T02:08:42;97628.20;;;7.50
76898;BMP180;65856;52.178;21.176;2023-03-11T02:11:16;97628.20;;;7.50
76898;BMP180;65856;52.178;21.176;2023-03-11T02:13:46;97624.20;;;7.40
76898;BMP180;65856;52.178;21.176;2023-03-11T02:16:15;97626.00;;;7.40
76898;BMP180;65856;52.178;21.176;2023-03-11T02:18:44;97613.60;;;7.40
76898;BMP180;65856;52.178;21.176;2023-03-11T02:21:23;97613.60;;;7.30
76898;BMP180;65856;52.178;21.176;2023-03-11T02:24:03;97622.20;;;7.30
76898;BMP180;65856;52.178;21.176;2023-03-11T02:29:11;97623.60;;;7.22
76898;BMP180;65856;52.178;21.176;2023-03-11T02:31:41;97620.60;;;7.20
76898;BMP180;65856;52.178;21.176;2023-03-11T02:34:18;97617.60;;;7.20
76898;BMP180;65856;52.178;21.176;2023-03-11T02:36:48;97610.40;;;7.20
76898;BMP180;65856;52.178;21.176;2023-03-11T02:39:16;97604.40;;;7.10
76898;BMP180;65856;52.178;21.176;2023-03-11T02:41:46;97603.20;;;7.10
76898;BMP180;65856;52.178;21.176;2023-03-11T02:44:15;97598.20;;;7.08
76898;BMP180;65856;52.178;21.176;2023-03-11T02:46:44;97597.20;;;7.00
76898;BMP180;65856;52.178;21.176;2023-03-11T02:49:13;97596.80;;;7.00
76898;BMP180;65856;52.178;21.176;2023-03-11T02:51:42;97597.60;;;7.00
76898;BMP180;65856;52.178;21.176;2023-03-11T02:54:10;97600.40;;;7.00
76898;BMP180;65856;52.178;21.176;2023-03-11T02:56:38;97603.80;;;7.00
76898;BMP180;65856;52.178;21.176;2023-03-11T02:59:06;97609.20;;;7.00
76898;BMP180;65856;52.178;21.176;2023-03-11T03:01:34;97600.20;;;7.00
76898;BMP180;65856;52.178;21.176;2023-03-11T03:04:03;97598.00;;;7.00
76898;BMP180;65856;52.178;21.176;2023-03-11T03:06:31;97603.40;;;7.00
76898;BMP180;65856;52.178;21.176;2023-03-11T03:08:59;97604.20;;;6.90
76898;BMP180;65856;52.178;21.176;2023-03-11T03:11:27;97604.60;;;6.90
76898;BMP180;65856;52.178;21.176;2023-03-11T03:13:55;97601.80;;;6.90
76898;BMP180;65856;52.178;21.176;2023-03-11T03:16:23;97598.80;;;6.90
76898;BMP180;65856;52.178;21.176;2023-03-11T03:18:51;97598.40;;;6.90
76898;BMP180;65856;52.178;21.176;2023-03-11T03:21:19;97595.80;;;6.98
76898;BMP180;65856;52.178;21.176;2023-03-11T03:23:47;97602.40;;;6.90
76898;BMP180;65856;52.178;21.176;2023-03-11T03:26:15;97602.40;;;6.90
76898;BMP180;65856;52.178;21.176;2023-03-11T03:28:43;97607.80;;;6.90
76898;BMP180;65856;52.178;21.176;2023-03-11T03:31:12;97602.60;;;6.80
76898;BMP180;65856;52.178;21.176;2023-03-11T03:33:40;97598.20;;;6.78
76898;BMP180;65856;52.178;21.176;2023-03-11T03:36:13;97595.40;;;6.70
76898;BMP180;65856;52.178;21.176;2023-03-11T03:38:41;97594.60;;;6.60
76898;BMP180;65856;52.178;21.176;2023-03-11T03:41:11;97592.60;;;6.60
76898;BMP180;65856;52.178;21.176;2023-03-11T03:43:39;97595.60;;;6.54
76898;BMP180;65856;52.178;21.176;2023-03-11T03:46:08;97601.40;;;6.50
76898;BMP180;65856;52.178;21.176;2023-03-11T03:48:36;97602.40;;;6.40
76898;BMP180;65856;52.178;21.176;2023-03-11T03:51:08;97598.20;;;6.40
76898;BMP180;65856;52.178;21.176;2023-03-11T03:53:37;97601.80;;;6.40
76898;BMP180;65856;52.178;21.176;2023-03-11T03:56:08;97596.40;;;6.40
76898;BMP180;65856;52.178;21.176;2023-03-11T03:58:36;97595.40;;;6.50
76898;BMP180;65856;52.178;21.176;2023-03-11T04:01:06;97589.60;;;6.50
76898;BMP180;65856;52.178;21.176;2023-03-11T04:03:36;97587.60;;;6.60
76898;BMP180;65856;52.178;21.176;2023-03-11T04:06:14;97584.20;;;6.60
76898;BMP180;65856;52.178;21.176;2023-03-11T04:08:43;97577.80;;;6.60
76898;BMP180;65856;52.178;21.176;2023-03-11T04:11:11;97564.20;;;6.50
76898;BMP180;65856;52.178;21.176;2023-03-11T04:13:40;97564.40;;;6.50
76898;BMP180;65856;52.178;21.176;2023-03-11T04:16:17;97561.40;;;6.50
76898;BMP180;65856;52.178;21.176;2023-03-11T04:18:46;97559.60;;;6.50
76898;BMP180;65856;52.178;21.176;2023-03-11T04:21:14;97567.20;;;6.60
76898;BMP180;65856;52.178;21.176;2023-03-11T04:23:42;97567.60;;;6.54
76898;BMP180;65856;52.178;21.176;2023-03-11T04:26:10;97565.00;;;6.50
76898;BMP180;65856;52.178;21.176;2023-03-11T04:28:39;97569.40;;;6.40
76898;BMP180;65856;52.178;21.176;2023-03-11T04:31:07;97570.00;;;6.40
76898;BMP180;65856;52.178;21.176;2023-03-11T04:33:35;97570.00;;;6.30
76898;BMP180;65856;52.178;21.176;2023-03-11T04:36:08;97569.60;;;6.30
76898;BMP180;65856;52.178;21.176;2023-03-11T04:38:36;97558.80;;;6.20
76898;BMP180;65856;52.178;21.176;2023-03-11T04:41:06;97559.40;;;6.12
76898;BMP180;65856;52.178;21.176;2023-03-11T04:43:34;97563.40;;;6.10
76898;BMP180;65856;52.178;21.176;2023-03-11T04:46:02;97564.60;;;6.10
76898;BMP180;65856;52.178;21.176;2023-03-11T04:48:30;97567.00;;;6.10
76898;BMP180;65856;52.178;21.176;2023-03-11T04:50:58;97571.40;;;6.10
76898;BMP180;65856;52.178;21.176;2023-03-11T04:53:26;97570.80;;;6.10
76898;BMP180;65856;52.178;21.176;2023-03-11T04:55:54;97572.80;;;6.10
76898;BMP180;65856;52.178;21.176;2023-03-11T04:58:23;97579.80;;;6.10
76898;BMP180;65856;52.178;21.176;2023-03-11T05:00:52;97578.00;;;6.10
76898;BMP180;65856;52.178;21.176;2023-03-11T05:03:20;97583.40;;;6.20
76898;BMP180;65856;52.178;21.176;2023-03-11T05:05:48;97590.40;;;6.30
76898;BMP180;65856;52.178;21.176;2023-03-11T05:08:16;97583.60;;;6.40
76898;BMP180;65856;52.178;21.176;2023-03-11T05:10:44;97586.20;;;6.40
76898;BMP180;65856;52.178;21.176;2023-03-11T05:13:12;97590.80;;;6.40
76898;BMP180;65856;52.178;21.176;2023-03-11T05:15:40;97583.80;;;6.40
76898;BMP180;65856;52.178;21.176;2023-03-11T05:18:09;97586.00;;;6.30
76898;BMP180;65856;52.178;21.176;2023-03-11T05:20:37;97584.80;;;6.30
76898;BMP180;65856;52.178;21.176;2023-03-11T05:23:05;97578.60;;;6.36
76898;BMP180;65856;52.178;21.176;2023-03-11T05:25:33;97574.60;;;6.40
76898;BMP180;65856;52.178;21.176;2023-03-11T05:28:02;97570.40;;;6.40
76898;BMP180;65856;52.178;21.176;2023-03-11T05:30:30;97571.00;;;6.50
76898;BMP180;65856;52.178;21.176;2023-03-11T05:32:58;97573.00;;;6.60
76898;BMP180;65856;52.178;21.176;2023-03-11T05:35:26;97571.80;;;6.70
76898;BMP180;65856;52.178;21.176;2023-03-11T05:37:55;97570.40;;;6.70
76898;BMP180;65856;52.178;21.176;2023-03-11T05:40:23;97568.60;;;6.76
76898;BMP180;65856;52.178;21.176;2023-03-11T05:42:51;97566.40;;;6.80
76898;BMP180;65856;52.178;21.176;2023-03-11T05:45:19;97562.00;;;6.80
76898;BMP180;65856;52.178;21.176;2023-03-11T05:47:47;97559.20;;;6.80
76898;BMP180;65856;52.178;21.176;2023-03-11T05:50:15;97557.60;;;6.90
76898;BMP180;65856;52.178;21.176;2023-03-11T05:52:43;97556.80;;;6.90
76898;BMP180;65856;52.178;21.176;2023-03-11T05:55:12;97557.40;;;7.00
76898;BMP180;65856;52.178;21.176;2023-03-11T05:57:40;97557.80;;;7.00
76898;BMP180;65856;52.178;21.176;2023-03-11T06:00:12;97563.40;;;7.00
76898;BMP180;65856;52.178;21.176;2023-03-11T06:02:40;97560.40;;;7.00
76898;BMP180;65856;52.178;21.176;2023-03-11T06:05:10;97557.80;;;7.00
76898;BMP180;65856;52.178;21.176;2023-03-11T06:07:38;97562.80;;;7.00
76898;BMP180;65856;52.178;21.176;2023-03-11T06:10:10;97566.80;;;7.00
76898;BMP180;65856;52.178;21.176;2023-03-11T06:12:38;97572.80;;;7.00
76898;BMP180;65856;52.178;21.176;2023-03-11T06:15:09;97573.00;;;7.00
76898;BMP180;65856;52.178;21.176;2023-03-11T06:17:37;97573.60;;;7.00
76898;BMP180;65856;52.178;21.176;2023-03-11T06:20:08;97577.20;;;7.00
76898;BMP180;65856;52.178;21.176;2023-03-11T06:22:36;97573.40;;;7.00
76898;BMP180;65856;52.178;21.176;2023-03-11T06:25:05;97577.00;;;7.00
76898;BMP180;65856;52.178;21.176;2023-03-11T06:27:34;97580.60;;;6.94
76898;BMP180;65856;52.178;21.176;2023-03-11T06:30:03;97582.60;;;6.94
76898;BMP180;65856;52.178;21.176;2023-03-11T06:32:31;97590.40;;;7.00
76898;BMP180;65856;52.178;21.176;2023-03-11T06:35:01;97592.60;;;7.00
76898;BMP180;65856;52.178;21.176;2023-03-11T06:37:29;97593.20;;;7.10
76898;BMP180;65856;52.178;21.176;2023-03-11T06:39:57;97595.20;;;7.10
76898;BMP180;65856;52.178;21.176;2023-03-11T06:42:25;97597.40;;;7.20
76898;BMP180;65856;52.178;21.176;2023-03-11T06:44:53;97596.20;;;7.40
76898;BMP180;65856;52.178;21.176;2023-03-11T06:47:21;97592.60;;;7.46
76898;BMP180;65856;52.178;21.176;2023-03-11T06:49:50;97591.60;;;7.50
76898;BMP180;65856;52.178;21.176;2023-03-11T06:52:19;97594.00;;;7.60
76898;BMP180;65856;52.178;21.176;2023-03-11T06:54:47;97594.20;;;7.60
76898;BMP180;65856;52.178;21.176;2023-03-11T06:57:16;97594.60;;;7.64
76898;BMP180;65856;52.178;21.176;2023-03-11T06:59:44;97598.60;;;7.70
76898;BMP180;65856;52.178;21.176;2023-03-11T07:02:14;97603.80;;;7.80
76898;BMP180;65856;52.178;21.176;2023-03-11T07:04:42;97604.20;;;7.90
76898;BMP180;65856;52.178;21.176;2023-03-11T07:07:10;97609.60;;;8.00
76898;BMP180;65856;52.178;21.176;2023-03-11T07:09:38;97608.60;;;8.10
76898;BMP180;65856;52.178;21.176;2023-03-11T07:12:07;97608.80;;;8.14
76898;BMP180;65856;52.178;21.176;2023-03-11T07:14:35;97605.80;;;8.20
76898;BMP180;65856;52.178;21.176;2023-03-11T07:17:04;97610.80;;;8.20
76898;BMP180;65856;52.178;21.176;2023-03-11T07:19:32;97613.00;;;8.20
76898;BMP180;65856;52.178;21.176;2023-03-11T07:22:00;97614.20;;;8.20
76898;BMP180;65856;52.178;21.176;2023-03-11T07:24:28;97619.80;;;8.20
76898;BMP180;65856;52.178;21.176;2023-03-11T07:26:56;97627.40;;;8.26
76898;BMP180;65856;52.178;21.176;2023-03-11T07:29:24;97630.00;;;8.30
76898;BMP180;65856;52.178;21.176;2023-03-11T07:31:52;97627.60;;;8.30
76898;BMP180;65856;52.178;21.176;2023-03-11T07:34:20;97633.60;;;8.30
76898;BMP180;65856;52.178;21.176;2023-03-11T07:36:48;97630.80;;;8.30
76898;BMP180;65856;52.178;21.176;2023-03-11T07:39:18;97635.80;;;8.30
76898;BMP180;65856;52.178;21.176;2023-03-11T07:41:46;97632.80;;;8.38
76898;BMP180;65856;52.178;21.176;2023-03-11T07:44:16;97635.40;;;8.40
76898;BMP180;65856;52.178;21.176;2023-03-11T07:46:45;97637.40;;;8.40
76898;BMP180;65856;52.178;21.176;2023-03-11T07:49:13;97632.00;;;8.40
76898;BMP180;65856;52.178;21.176;2023-03-11T07:51:41;97630.60;;;8.40
76898;BMP180;65856;52.178;21.176;2023-03-11T07:54:11;97630.60;;;8.48
76898;BMP180;65856;52.178;21.176;2023-03-11T07:56:40;97640.80;;;8.50
76898;BMP180;65856;52.178;21.176;2023-03-11T07:59:08;97647.20;;;8.50
76898;BMP180;65856;52.178;21.176;2023-03-11T08:01:36;97654.00;;;8.50
76898;BMP180;65856;52.178;21.176;2023-03-11T08:04:10;97652.20;;;8.48
76898;BMP180;65856;52.178;21.176;2023-03-11T08:06:40;97655.80;;;8.40
76898;BMP180;65856;52.178;21.176;2023-03-11T08:09:09;97657.00;;;8.40
76898;BMP180;65856;52.178;21.176;2023-03-11T08:11:37;97657.00;;;8.40
76898;BMP180;65856;52.178;21.176;2023-03-11T08:14:06;97660.00;;;8.40
76898;BMP180;65856;52.178;21.176;2023-03-11T08:16:34;97661.20;;;8.38
76898;BMP180;65856;52.178;21.176;2023-03-11T08:19:03;97664.60;;;8.40
76898;BMP180;65856;52.178;21.176;2023-03-11T08:21:31;97663.60;;;8.40
76898;BMP180;65856;52.178;21.176;2023-03-11T08:24:01;97671.00;;;8.38
76898;BMP180;65856;52.178;21.176;2023-03-11T08:26:31;97672.80;;;8.30
76898;BMP180;65856;52.178;21.176;2023-03-11T08:28:59;97674.00;;;8.30
76898;BMP180;65856;52.178;21.176;2023-03-11T08:31:30;97676.00;;;8.20
76898;BMP180;65856;52.178;21.176;2023-03-11T08:34:02;97678.00;;;8.10
76898;BMP180;65856;52.178;21.176;2023-03-11T08:36:31;97677.20;;;8.10
76898;BMP180;65856;52.178;21.176;2023-03-11T08:38:59;97678.40;;;8.10
76898;BMP180;65856;52.178;21.176;2023-03-11T08:41:28;97683.60;;;8.10
76898;BMP180;65856;52.178;21.176;2023-03-11T08:43:56;97679.80;;;8.10
76898;BMP180;65856;52.178;21.176;2023-03-11T08:46:27;97683.80;;;8.10
76898;BMP180;65856;52.178;21.176;2023-03-11T08:48:57;97686.20;;;8.10
76898;BMP180;65856;52.178;21.176;2023-03-11T08:51:25;97686.20;;;8.10
76898;BMP180;65856;52.178;21.176;2023-03-11T08:53:54;97687.60;;;8.20
76898;BMP180;65856;52.178;21.176;2023-03-11T08:56:22;97689.20;;;8.10
76898;BMP180;65856;52.178;21.176;2023-03-11T08:58:50;97695.80;;;8.16
76898;BMP180;65856;52.178;21.176;2023-03-11T09:01:19;97698.40;;;8.10
76898;BMP180;65856;52.178;21.176;2023-03-11T09:03:47;97705.20;;;8.10
76898;BMP180;65856;52.178;21.176;2023-03-11T09:06:17;97702.60;;;8.10
76898;BMP180;65856;52.178;21.176;2023-03-11T09:08:47;97705.60;;;8.00
76898;BMP180;65856;52.178;21.176;2023-03-11T09:11:17;97707.40;;;8.00
76898;BMP180;65856;52.178;21.176;2023-03-11T09:13:45;97714.60;;;8.00
76898;BMP180;65856;52.178;21.176;2023-03-11T09:16:16;97722.80;;;8.00
76898;BMP180;65856;52.178;21.176;2023-03-11T09:18:45;97724.00;;;8.00
76898;BMP180;65856;52.178;21.176;2023-03-11T09:21:13;97723.20;;;8.00
76898;BMP180;65856;52.178;21.176;2023-03-11T09:23:42;97730.20;;;7.96
76898;BMP180;65856;52.178;21.176;2023-03-11T09:26:10;97732.60;;;7.90
76898;BMP180;65856;52.178;21.176;2023-03-11T09:28:38;97739.00;;;7.90
76898;BMP180;65856;52.178;21.176;2023-03-11T09:31:07;97742.40;;;7.90
76898;BMP180;65856;52.178;21.176;2023-03-11T09:33:38;97746.20;;;7.80
76898;BMP180;65856;52.178;21.176;2023-03-11T09:36:08;97746.40;;;7.70
76898;BMP180;65856;52.178;21.176;2023-03-11T09:38:38;97744.80;;;7.70
76898;BMP180;65856;52.178;21.176;2023-03-11T09:41:17;97744.00;;;7.62
76898;BMP180;65856;52.178;21.176;2023-03-11T09:44:16;97744.40;;;7.60
76898;BMP180;65856;52.178;21.176;2023-03-11T09:47:22;97749.00;;;7.50
76898;BMP180;65856;52.178;21.176;2023-03-11T09:50:07;97750.80;;;7.50
76898;BMP180;65856;52.178;21.176;2023-03-11T09:52:45;97754.60;;;7.58
76898;BMP180;65856;52.178;21.176;2023-03-11T09:55:33;97752.40;;;7.60
76898;BMP180;65856;52.178;21.176;2023-03-11T09:58:12;97752.80;;;7.60
76898;BMP180;65856;52.178;21.176;2023-03-11T10:00:40;97760.00;;;7.60
76898;BMP180;65856;52.178;21.176;2023-03-11T10:03:25;97762.00;;;7.56
76898;BMP180;65856;52.178;21.176;2023-03-11T10:06:07;97768.40;;;7.50
76898;BMP180;65856;52.178;21.176;2023-03-11T10:08:46;97776.80;;;7.40
76898;BMP180;65856;52.178;21.176;2023-03-11T10:11:39;97783.60;;;7.30
76898;BMP180;65856;52.178;21.176;2023-03-11T10:14:25;97795.00;;;7.10
76898;BMP180;65856;52.178;21.176;2023-03-11T10:17:03;97802.40;;;7.00
76898;BMP180;65856;52.178;21.176;2023-03-11T10:19:43;97814.80;;;6.90
76898;BMP180;65856;52.178;21.176;2023-03-11T10:22:23;97818.00;;;6.70
76898;BMP180;65856;52.178;21.176;2023-03-11T10:25:04;97820.40;;;6.60
76898;BMP180;65856;52.178;21.176;2023-03-11T10:27:42;97829.00;;;6.50
76898;BMP180;65856;52.178;21.176;2023-03-11T10:30:24;97842.00;;;6.38
76898;BMP180;65856;52.178;21.176;2023-03-11T10:33:00;97844.20;;;6.18
76898;BMP180;65856;52.178;21.176;2023-03-11T10:35:37;97855.40;;;6.00
76898;BMP180;65856;52.178;21.176;2023-03-11T10:38:14;97857.20;;;5.80
76898;BMP180;65856;52.178;21.176;2023-03-11T10:40:45;97868.60;;;5.70
76898;BMP180;65856;52.178;21.176;2023-03-11T10:43:18;97878.00;;;5.60
76898;BMP180;65856;52.178;21.176;2023-03-11T10:45:50;97884.40;;;5.50
76898;BMP180;65856;52.178;21.176;2023-03-11T10:48:21;97890.60;;;5.38
76898;BMP180;65856;52.178;21.176;2023-03-11T10:51:00;97900.60;;;5.28
76898;BMP180;65856;52.178;21.176;2023-03-11T10:53:29;97906.80;;;5.20
76898;BMP180;65856;52.178;21.176;2023-03-11T10:55:59;97915.80;;;5.20
76898;BMP180;65856;52.178;21.176;2023-03-11T10:58:29;97919.40;;;5.00
76898;BMP180;65856;52.178;21.176;2023-03-11T11:01:13;97920.60;;;5.00
76898;BMP180;65856;52.178;21.176;2023-03-11T11:03:46;97924.60;;;4.90
76898;BMP180;65856;52.178;21.176;2023-03-11T11:06:25;97937.00;;;4.80
76898;BMP180;65856;52.178;21.176;2023-03-11T11:09:16;97944.40;;;4.80
76898;BMP180;65856;52.178;21.176;2023-03-11T11:12:01;97948.40;;;4.70
76898;BMP180;65856;52.178;21.176;2023-03-11T11:14:44;97955.80;;;4.60
76898;BMP180;65856;52.178;21.176;2023-03-11T11:17:26;97962.00;;;4.50
76898;BMP180;65856;52.178;21.176;2023-03-11T11:19:57;97966.60;;;4.34
76898;BMP180;65856;52.178;21.176;2023-03-11T11:22:27;97976.40;;;4.20
76898;BMP180;65856;52.178;21.176;2023-03-11T11:24:58;97987.80;;;4.10
76898;BMP180;65856;52.178;21.176;2023-03-11T11:27:28;97985.60;;;4.10
76898;BMP180;65856;52.178;21.176;2023-03-11T11:30:17;97989.20;;;4.00
76898;BMP180;65856;52.178;21.176;2023-03-11T11:32:45;97991.80;;;4.00
76898;BMP180;65856;52.178;21.176;2023-03-11T11:35:15;97997.40;;;3.92
76898;BMP180;65856;52.178;21.176;2023-03-11T11:37:47;98007.60;;;3.80
76898;BMP180;65856;52.178;21.176;2023-03-11T11:40:26;98023.60;;;3.80
76898;BMP180;65856;52.178;21.176;2023-03-11T11:42:58;98032.40;;;3.74
76898;BMP180;65856;52.178;21.176;2023-03-11T11:45:46;98042.00;;;3.70
76898;BMP180;65856;52.178;21.176;2023-03-11T11:48:21;98048.20;;;3.60
76898;BMP180;65856;52.178;21.176;2023-03-11T11:50:56;98060.00;;;3.50
76898;BMP180;65856;52.178;21.176;2023-03-11T11:53:35;98063.00;;;3.50
76898;BMP180;65856;52.178;21.176;2023-03-11T11:56:04;98073.20;;;3.50
76898;BMP180;65856;52.178;21.176;2023-03-11T11:58:34;98072.80;;;3.50
76898;BMP180;65856;52.178;21.176;2023-03-11T12:01:15;98082.20;;;3.40
76898;BMP180;65856;52.178;21.176;2023-03-11T12:04:18;98092.80;;;3.40
76898;BMP180;65856;52.178;21.176;2023-03-11T12:06:56;98093.80;;;3.40
76898;BMP180;65856;52.178;21.176;2023-03-11T12:09:35;98105.00;;;3.30
76898;BMP180;65856;52.178;21.176;2023-03-11T12:12:19;98110.00;;;3.30
76898;BMP180;65856;52.178;21.176;2023-03-11T12:14:56;98120.20;;;3.20
76898;BMP180;65856;52.178;21.176;2023-03-11T12:17:28;98116.80;;;3.10
76898;BMP180;65856;52.178;21.176;2023-03-11T12:20:01;98128.80;;;3.00
76898;BMP180;65856;52.178;21.176;2023-03-11T12:23:08;98138.80;;;3.00
76898;BMP180;65856;52.178;21.176;2023-03-11T12:25:47;98136.60;;;2.92
76898;BMP180;65856;52.178;21.176;2023-03-11T12:28:30;98143.60;;;2.90
76898;BMP180;65856;52.178;21.176;2023-03-11T12:31:07;98158.40;;;2.90
76898;BMP180;65856;52.178;21.176;2023-03-11T12:33:39;98157.40;;;2.88
76898;BMP180;65856;52.178;21.176;2023-03-11T12:36:24;98172.60;;;2.70
76898;BMP180;65856;52.178;21.176;2023-03-11T12:38:55;98175.60;;;2.80
76898;BMP180;65856;52.178;21.176;2023-03-11T12:41:33;98188.40;;;2.80
76898;BMP180;65856;52.178;21.176;2023-03-11T12:44:23;98194.60;;;2.70
76898;BMP180;65856;52.178;21.176;2023-03-11T12:47:22;98205.80;;;2.60
76898;BMP180;65856;52.178;21.176;2023-03-11T12:49:53;98210.60;;;2.58
76898;BMP180;65856;52.178;21.176;2023-03-11T12:52:28;98219.60;;;2.50
76898;BMP180;65856;52.178;21.176;2023-03-11T12:55:36;98221.80;;;2.50
76898;BMP180;65856;52.178;21.176;2023-03-11T12:58:39;98226.20;;;2.50
76898;BMP180;65856;52.178;21.176;2023-03-11T13:01:39;98233.20;;;2.40
76898;BMP180;65856;52.178;21.176;2023-03-11T13:04:39;98243.60;;;2.30
76898;BMP180;65856;52.178;21.176;2023-03-11T13:07:45;98248.80;;;2.30
76898;BMP180;65856;52.178;21.176;2023-03-11T13:10:32;98256.20;;;2.30
76898;BMP180;65856;52.178;21.176;2023-03-11T13:13:02;98271.00;;;2.32
76898;BMP180;65856;52.178;21.176;2023-03-11T13:15:49;98277.20;;;2.30
76898;BMP180;65856;52.178;21.176;2023-03-11T13:18:22;98288.40;;;2.30
76898;BMP180;65856;52.178;21.176;2023-03-11T13:20:54;98290.80;;;2.20
76898;BMP180;65856;52.178;21.176;2023-03-11T13:23:35;98302.60;;;2.20
76898;BMP180;65856;52.178;21.176;2023-03-11T13:26:35;98313.80;;;2.20
76898;BMP180;65856;52.178;21.176;2023-03-11T13:29:43;98313.00;;;2.10
76898;BMP180;65856;52.178;21.176;2023-03-11T13:32:35;98312.80;;;2.08
76898;BMP180;65856;52.178;21.176;2023-03-11T13:35:25;98316.40;;;2.00
76898;BMP180;65856;52.178;21.176;2023-03-11T13:38:19;98330.80;;;2.00
76898;BMP180;65856;52.178;21.176;2023-03-11T13:40:51;98340.20;;;2.00
76898;BMP180;65856;52.178;21.176;2023-03-11T13:43:21;98352.00;;;2.00
76898;BMP180;65856;52.178;21.176;2023-03-11T13:45:55;98360.40;;;2.00
76898;BMP180;65856;52.178;21.176;2023-03-11T13:48:29;98380.40;;;2.10
76898;BMP180;65856;52.178;21.176;2023-03-11T13:51:05;98383.00;;;2.10
76898;BMP180;65856;52.178;21.176;2023-03-11T13:53:39;98394.00;;;2.10
76898;BMP180;65856;52.178;21.176;2023-03-11T13:56:21;98406.40;;;2.10
76898;BMP180;65856;52.178;21.176;2023-03-11T13:58:49;98407.40;;;2.00
76898;BMP180;65856;52.178;21.176;2023-03-11T14:01:18;98411.20;;;1.90
76898;BMP180;65856;52.178;21.176;2023-03-11T14:03:47;98416.40;;;1.84
76898;BMP180;65856;52.178;21.176;2023-03-11T14:06:18;98418.00;;;1.80
76898;BMP180;65856;52.178;21.176;2023-03-11T14:08:55;98424.60;;;1.72
76898;BMP180;65856;52.178;21.176;2023-03-11T14:11:27;98441.40;;;1.80
76898;BMP180;65856;52.178;21.176;2023-03-11T14:13:55;98441.20;;;1.72
76898;BMP180;65856;52.178;21.176;2023-03-11T14:16:29;98454.20;;;1.80
76898;BMP180;65856;52.178;21.176;2023-03-11T14:19:12;98464.20;;;1.80
76898;BMP180;65856;52.178;21.176;2023-03-11T14:21:43;98474.20;;;1.80
76898;BMP180;65856;52.178;21.176;2023-03-11T14:24:18;98475.40;;;1.80
76898;BMP180;65856;52.178;21.176;2023-03-11T14:26:47;98485.40;;;1.72
76898;BMP180;65856;52.178;21.176;2023-03-11T14:29:19;98494.60;;;1.70
76898;BMP180;65856;52.178;21.176;2023-03-11T14:31:49;98498.80;;;1.70
76898;BMP180;65856;52.178;21.176;2023-03-11T14:34:20;98501.20;;;1.70
76898;BMP180;65856;52.178;21.176;2023-03-11T14:36:50;98506.00;;;1.70
76898;BMP180;65856;52.178;21.176;2023-03-11T14:39:30;98511.40;;;1.70
76898;BMP180;65856;52.178;21.176;2023-03-11T14:42:05;98517.20;;;1.70